Weather at Žatec-Macerka Airfield

Public forecast

Using degrees Celsius for public forecast. Weather courtesy of forecast.io.

Closest aviation weather report (METAR) to Žatec-Macerka Airfield

Closest report is Karlovy Vary International Airport, 24.0 nm (44.4 km) WSW. Retrieved 2021/10/25 16:30 UTC (58 minutes ago):

LKKV 251630Z 12005KT CAVOK 05/03 Q1021

Closest aviation forecast (TAF) to Žatec-Macerka Airfield

Closest forecast is Karlovy Vary International Airport, 24.0 nm (44.4 km) WSW. Retrieved 2021/10/25 12:15 UTC (5 hours ago):

TAF LKKV 251100Z 2512/2618 VRB02KT CAVOK TEMPO 2516/2522 13005KT BECMG 2607/2609 26006KT 9999 SCT017 TEMPO 2609/2616 BKN012